Calvary, Georgia
Current Conditions -  °F | °C
As of 5:55 PM on Friday 28 Nov 2014 (Local Time) from K2J9 Reporting Station
Clear Clear  
Wind Chill:   Ceiling: Unl
Heat Index:   Visibility: 10mi
Dew Point:   Wind: 5mph
Humidity: 57%   Direction: 10°N
Pressure: 30.34"   Gusts: NA
Location:  30.73°N, 84.35°W
Report Text: K2J9 282255Z AUTO 01004KT 10SM CLR 08/00 A3034 RMK AO1 P0169
Loading
Personal Weather Stations






























Interactive Weather Map New forecast layout! Learn more

10-Day Weather Forecast

Advertisements
Track Severe Weather on mobile